SVA1029 OERK-OEJN
Flight info
| Callsign | SVA1029 |
|---|---|
| Flight time | 1h 22m |
| Altitude | 36000 |
| Route | UMASU M309 VEMEM |
| Aircraft | B77W/H-SDE1E2E3FGHIJ2J3J4J5M1RWXY/LB1D1 |
Departure
| Time | 2026-05-08 07:54 |
|---|---|
| Airport | King Khalid International Airport (OERK) |
Arrival
| Time | 2026-05-08 09:16 |
|---|---|
| Airport | King Abdulaziz International Airport (OEJN) |
| Time | Latitude | Longitude | Altitude | Speed | Heading |
|---|---|---|---|---|---|
| 2026-05-08 07:30 | 24.95631 | 46.70742 | 2035 ft | 0 kts | 263° |
| 2026-05-08 07:43 | 24.95633 | 46.70763 | 2045 ft | 3 kts | 260° |
| 2026-05-08 07:43 | 24.95638 | 46.70784 | 2045 ft | 3 kts | 252° |
| 2026-05-08 07:43 | 24.95642 | 46.70799 | 2043 ft | 2 kts | 247° |
| 2026-05-08 07:44 | 24.95649 | 46.70815 | 2043 ft | 3 kts | 227° |
| 2026-05-08 07:44 | 24.95658 | 46.70825 | 2045 ft | 3 kts | 195° |
| 2026-05-08 07:44 | 24.95665 | 46.70827 | 2045 ft | 3 kts | 155° |
| 2026-05-08 07:44 | 24.95674 | 46.70821 | 2045 ft | 3 kts | 141° |
| 2026-05-08 07:45 | 24.95690 | 46.70807 | 2045 ft | 3 kts | 141° |
| 2026-05-08 07:45 | 24.95705 | 46.70795 | 2045 ft | 2 kts | 148° |
| 2026-05-08 07:45 | 24.95707 | 46.70793 | 2045 ft | 0 kts | 149° |
| 2026-05-08 07:46 | 24.95679 | 46.70811 | 2043 ft | 9 kts | 149° |
| 2026-05-08 07:47 | 24.95624 | 46.70847 | 2045 ft | 9 kts | 150° |
| 2026-05-08 07:47 | 24.95569 | 46.70882 | 2043 ft | 9 kts | 150° |
| 2026-05-08 07:47 | 24.95514 | 46.70916 | 2040 ft | 9 kts | 150° |
| 2026-05-08 07:47 | 24.95458 | 46.70951 | 2044 ft | 9 kts | 150° |
| 2026-05-08 07:48 | 24.95403 | 46.70986 | 2045 ft | 9 kts | 150° |
| 2026-05-08 07:48 | 24.95350 | 46.71022 | 2043 ft | 9 kts | 142° |
| 2026-05-08 07:48 | 24.95338 | 46.71086 | 2044 ft | 9 kts | 71° |
| 2026-05-08 07:48 | 24.95369 | 46.71148 | 2042 ft | 9 kts | 59° |
| 2026-05-08 07:49 | 24.95402 | 46.71209 | 2040 ft | 9 kts | 59° |
| 2026-05-08 07:49 | 24.95415 | 46.71277 | 2041 ft | 11 kts | 116° |
| 2026-05-08 07:49 | 24.95336 | 46.71344 | 2045 ft | 17 kts | 152° |
| 2026-05-08 07:49 | 24.95235 | 46.71410 | 2044 ft | 17 kts | 149° |
| 2026-05-08 07:50 | 24.95132 | 46.71474 | 2045 ft | 17 kts | 150° |
| 2026-05-08 07:50 | 24.95030 | 46.71538 | 2044 ft | 17 kts | 150° |
| 2026-05-08 07:50 | 24.94928 | 46.71602 | 2045 ft | 17 kts | 150° |
| 2026-05-08 07:50 | 24.94827 | 46.71668 | 2046 ft | 17 kts | 149° |
| 2026-05-08 07:51 | 24.94725 | 46.71733 | 2045 ft | 17 kts | 150° |
| 2026-05-08 07:51 | 24.94625 | 46.71797 | 2042 ft | 17 kts | 150° |
| 2026-05-08 07:51 | 24.94523 | 46.71862 | 2045 ft | 17 kts | 150° |
| 2026-05-08 07:51 | 24.94421 | 46.71927 | 2043 ft | 17 kts | 150° |
| 2026-05-08 07:52 | 24.94324 | 46.71990 | 2045 ft | 13 kts | 144° |
| 2026-05-08 07:52 | 24.94311 | 46.72070 | 2042 ft | 5 kts | 66° |
| 2026-05-08 07:52 | 24.94327 | 46.72103 | 2045 ft | 5 kts | 62° |
| 2026-05-08 07:52 | 24.94348 | 46.72146 | 2043 ft | 11 kts | 61° |
| 2026-05-08 07:53 | 24.94392 | 46.72222 | 2043 ft | 17 kts | 47° |
| 2026-05-08 07:53 | 24.94552 | 46.72180 | 2042 ft | 53 kts | 328° |
| 2026-05-08 07:53 | 24.95060 | 46.71861 | 2042 ft | 122 kts | 330° |
| 2026-05-08 07:53 | 24.95970 | 46.71295 | 2048 ft | 176 kts | 331° |
| 2026-05-08 07:54 | 24.97001 | 46.70656 | 2786 ft | 162 kts | 332° |
| 2026-05-08 07:54 | 24.98020 | 46.70013 | 3282 ft | 176 kts | 337° |
| 2026-05-08 07:54 | 24.99202 | 46.69564 | 3811 ft | 187 kts | 343° |
| 2026-05-08 07:54 | 25.00512 | 46.69056 | 4113 ft | 214 kts | 342° |
| 2026-05-08 07:55 | 25.02005 | 46.68464 | 4382 ft | 243 kts | 342° |
| 2026-05-08 07:55 | 25.03704 | 46.67789 | 4760 ft | 271 kts | 342° |
| 2026-05-08 07:55 | 25.05509 | 46.67078 | 5548 ft | 277 kts | 342° |
| 2026-05-08 07:55 | 25.07247 | 46.66189 | 6359 ft | 279 kts | 322° |
| 2026-05-08 07:56 | 25.08458 | 46.64522 | 7187 ft | 282 kts | 294° |
| 2026-05-08 07:56 | 25.08882 | 46.62420 | 7998 ft | 284 kts | 269° |
| 2026-05-08 07:56 | 25.08616 | 46.60257 | 8728 ft | 287 kts | 258° |
| 2026-05-08 07:56 | 25.08219 | 46.58089 | 9548 ft | 289 kts | 257° |
| 2026-05-08 07:57 | 25.07812 | 46.55915 | 10399 ft | 289 kts | 255° |
| 2026-05-08 07:57 | 25.07048 | 46.53863 | 10763 ft | 305 kts | 238° |
| 2026-05-08 07:57 | 25.05860 | 46.51797 | 10955 ft | 332 kts | 236° |
| 2026-05-08 07:57 | 25.04570 | 46.49569 | 11291 ft | 353 kts | 236° |
| 2026-05-08 07:58 | 25.03248 | 46.47243 | 12063 ft | 362 kts | 236° |
| 2026-05-08 07:58 | 25.01915 | 46.44860 | 13063 ft | 366 kts | 236° |
| 2026-05-08 07:58 | 25.00580 | 46.42457 | 14089 ft | 368 kts | 236° |
| 2026-05-08 07:58 | 24.99229 | 46.40031 | 15016 ft | 371 kts | 236° |
| 2026-05-08 07:59 | 24.97823 | 46.37627 | 15983 ft | 374 kts | 235° |
| 2026-05-08 07:59 | 24.96403 | 46.35264 | 16940 ft | 376 kts | 235° |
| 2026-05-08 07:59 | 24.94954 | 46.32848 | 17909 ft | 379 kts | 235° |
| 2026-05-08 07:59 | 24.93497 | 46.30406 | 18754 ft | 382 kts | 236° |
| 2026-05-08 08:00 | 24.92031 | 46.27943 | 19512 ft | 388 kts | 236° |
| 2026-05-08 08:00 | 24.90541 | 46.25439 | 20247 ft | 393 kts | 236° |
| 2026-05-08 08:00 | 24.89031 | 46.22905 | 20993 ft | 398 kts | 236° |
| 2026-05-08 08:00 | 24.87505 | 46.20347 | 21750 ft | 402 kts | 237° |
| 2026-05-08 08:01 | 24.85937 | 46.17771 | 22442 ft | 407 kts | 233° |
| 2026-05-08 08:01 | 24.83949 | 46.15538 | 23027 ft | 411 kts | 218° |
| 2026-05-08 08:01 | 24.81586 | 46.13710 | 23533 ft | 420 kts | 216° |
| 2026-05-08 08:01 | 24.79172 | 46.11851 | 24090 ft | 424 kts | 217° |
| 2026-05-08 08:02 | 24.76773 | 46.09968 | 24870 ft | 422 kts | 217° |
| 2026-05-08 08:02 | 24.74406 | 46.08080 | 25684 ft | 419 kts | 217° |
| 2026-05-08 08:02 | 24.72077 | 46.06207 | 26391 ft | 420 kts | 217° |
| 2026-05-08 08:02 | 24.69713 | 46.04305 | 27014 ft | 422 kts | 217° |
| 2026-05-08 08:03 | 24.67461 | 46.02236 | 27563 ft | 424 kts | 226° |
| 2026-05-08 08:03 | 24.65733 | 45.99619 | 28066 ft | 424 kts | 238° |
| 2026-05-08 08:03 | 24.64259 | 45.96779 | 28491 ft | 430 kts | 238° |
| 2026-05-08 08:03 | 24.62749 | 45.93926 | 29044 ft | 432 kts | 237° |
| 2026-05-08 08:04 | 24.61219 | 45.91083 | 29610 ft | 433 kts | 237° |
| 2026-05-08 08:04 | 24.59674 | 45.88239 | 30188 ft | 434 kts | 237° |
| 2026-05-08 08:04 | 24.58117 | 45.85392 | 30622 ft | 435 kts | 237° |
| 2026-05-08 08:04 | 24.56557 | 45.82546 | 31080 ft | 435 kts | 237° |
| 2026-05-08 08:05 | 24.55000 | 45.79707 | 31662 ft | 431 kts | 237° |
| 2026-05-08 08:05 | 24.53462 | 45.76902 | 32315 ft | 427 kts | 237° |
| 2026-05-08 08:05 | 24.51934 | 45.74119 | 32930 ft | 423 kts | 237° |
| 2026-05-08 08:05 | 24.50418 | 45.71358 | 33445 ft | 422 kts | 236° |
| 2026-05-08 08:06 | 24.48905 | 45.68604 | 33927 ft | 420 kts | 236° |
| 2026-05-08 08:06 | 24.47416 | 45.65894 | 34354 ft | 419 kts | 236° |
| 2026-05-08 08:06 | 24.45911 | 45.63158 | 34741 ft | 418 kts | 236° |
| 2026-05-08 08:06 | 24.44398 | 45.60437 | 35096 ft | 417 kts | 236° |
| 2026-05-08 08:07 | 24.42851 | 45.57743 | 35459 ft | 416 kts | 235° |
| 2026-05-08 08:07 | 24.41297 | 45.55075 | 35844 ft | 415 kts | 235° |
| 2026-05-08 08:07 | 24.39739 | 45.52408 | 36061 ft | 416 kts | 235° |
| 2026-05-08 08:08 | 24.36621 | 45.47057 | 36046 ft | 414 kts | 235° |
| 2026-05-08 08:08 | 24.33533 | 45.41740 | 36050 ft | 413 kts | 235° |
| 2026-05-08 08:09 | 24.30462 | 45.36452 | 36053 ft | 414 kts | 235° |
| 2026-05-08 08:09 | 24.27365 | 45.31124 | 36055 ft | 414 kts | 235° |
| 2026-05-08 08:10 | 24.24261 | 45.25788 | 36059 ft | 415 kts | 235° |
| 2026-05-08 08:10 | 24.21155 | 45.20456 | 36058 ft | 415 kts | 235° |
| 2026-05-08 08:11 | 24.18041 | 45.15114 | 36059 ft | 416 kts | 235° |
| 2026-05-08 08:11 | 24.15060 | 45.09687 | 36061 ft | 417 kts | 239° |
| 2026-05-08 08:12 | 24.12535 | 45.03991 | 36067 ft | 418 kts | 241° |
| 2026-05-08 08:12 | 24.10037 | 44.98236 | 36072 ft | 418 kts | 240° |
| 2026-05-08 08:13 | 24.07492 | 44.92514 | 36070 ft | 418 kts | 240° |
| 2026-05-08 08:13 | 24.04922 | 44.86812 | 36076 ft | 417 kts | 240° |
| 2026-05-08 08:14 | 24.02352 | 44.81128 | 36074 ft | 417 kts | 240° |
| 2026-05-08 08:14 | 23.99782 | 44.75448 | 36075 ft | 416 kts | 240° |
| 2026-05-08 08:15 | 23.97215 | 44.69777 | 36078 ft | 416 kts | 240° |
| 2026-05-08 08:15 | 23.94663 | 44.64147 | 36076 ft | 416 kts | 240° |
| 2026-05-08 08:16 | 23.92163 | 44.58437 | 36072 ft | 418 kts | 244° |
| 2026-05-08 08:16 | 23.90079 | 44.52503 | 36071 ft | 418 kts | 245° |
| 2026-05-08 08:17 | 23.88006 | 44.46557 | 36068 ft | 418 kts | 245° |
| 2026-05-08 08:17 | 23.85927 | 44.40628 | 36066 ft | 418 kts | 245° |
| 2026-05-08 08:18 | 23.83840 | 44.34702 | 36065 ft | 417 kts | 244° |
| 2026-05-08 08:18 | 23.81766 | 44.28826 | 36060 ft | 417 kts | 244° |
| 2026-05-08 08:19 | 23.79678 | 44.22919 | 36054 ft | 417 kts | 244° |
| 2026-05-08 08:19 | 23.77589 | 44.17017 | 36036 ft | 416 kts | 244° |
| 2026-05-08 08:20 | 23.75502 | 44.11127 | 36055 ft | 415 kts | 244° |
| 2026-05-08 08:20 | 23.73416 | 44.05250 | 36056 ft | 415 kts | 244° |
| 2026-05-08 08:21 | 23.71330 | 43.99380 | 36056 ft | 414 kts | 244° |
| 2026-05-08 08:21 | 23.69241 | 43.93511 | 36060 ft | 414 kts | 244° |
| 2026-05-08 08:22 | 23.67165 | 43.87687 | 36060 ft | 415 kts | 244° |
| 2026-05-08 08:22 | 23.65073 | 43.81826 | 36064 ft | 414 kts | 244° |
| 2026-05-08 08:23 | 23.62981 | 43.75970 | 36059 ft | 415 kts | 244° |
| 2026-05-08 08:23 | 23.60886 | 43.70115 | 36062 ft | 415 kts | 244° |
| 2026-05-08 08:24 | 23.58783 | 43.64247 | 36057 ft | 415 kts | 244° |
| 2026-05-08 08:24 | 23.56680 | 43.58384 | 36063 ft | 415 kts | 244° |
| 2026-05-08 08:25 | 23.54576 | 43.52531 | 36064 ft | 415 kts | 244° |
| 2026-05-08 08:25 | 23.52481 | 43.46707 | 36074 ft | 414 kts | 244° |
| 2026-05-08 08:26 | 23.50377 | 43.40866 | 36089 ft | 414 kts | 244° |
| 2026-05-08 08:26 | 23.48268 | 43.35021 | 36077 ft | 414 kts | 244° |
| 2026-05-08 08:27 | 23.46160 | 43.29185 | 36084 ft | 413 kts | 244° |
| 2026-05-08 08:27 | 23.44055 | 43.23363 | 36087 ft | 413 kts | 244° |
| 2026-05-08 08:28 | 23.41947 | 43.17541 | 36083 ft | 413 kts | 244° |
| 2026-05-08 08:28 | 23.39850 | 43.11764 | 36089 ft | 413 kts | 244° |
| 2026-05-08 08:29 | 23.37730 | 43.05936 | 36083 ft | 413 kts | 244° |
| 2026-05-08 08:29 | 23.35608 | 43.00111 | 36089 ft | 414 kts | 244° |
| 2026-05-08 08:30 | 23.33483 | 42.94280 | 36094 ft | 414 kts | 244° |
| 2026-05-08 08:30 | 23.30293 | 42.85541 | 36095 ft | 414 kts | 244° |
| 2026-05-08 08:31 | 23.28177 | 42.79756 | 36094 ft | 414 kts | 244° |
| 2026-05-08 08:31 | 23.26045 | 42.73933 | 36089 ft | 414 kts | 244° |
| 2026-05-08 08:32 | 23.23909 | 42.68107 | 36092 ft | 414 kts | 244° |
| 2026-05-08 08:32 | 23.21769 | 42.62278 | 36092 ft | 414 kts | 244° |
| 2026-05-08 08:33 | 23.19993 | 42.57446 | 36093 ft | 414 kts | 244° |
| 2026-05-08 08:33 | 23.17856 | 42.51637 | 36099 ft | 414 kts | 244° |
| 2026-05-08 08:34 | 23.15715 | 42.45827 | 36086 ft | 414 kts | 243° |
| 2026-05-08 08:34 | 23.13574 | 42.40023 | 36092 ft | 413 kts | 244° |
| 2026-05-08 08:35 | 23.11442 | 42.34224 | 36098 ft | 413 kts | 244° |
| 2026-05-08 08:35 | 23.09374 | 42.28428 | 36090 ft | 414 kts | 244° |
| 2026-05-08 08:36 | 23.07301 | 42.22593 | 36089 ft | 414 kts | 244° |
| 2026-05-08 08:36 | 23.05218 | 42.16758 | 36088 ft | 414 kts | 244° |
| 2026-05-08 08:37 | 23.03134 | 42.10936 | 36090 ft | 414 kts | 244° |
| 2026-05-08 08:37 | 23.01055 | 42.05140 | 36085 ft | 414 kts | 244° |
| 2026-05-08 08:38 | 22.98966 | 41.99320 | 36083 ft | 414 kts | 244° |
| 2026-05-08 08:38 | 22.96875 | 41.93502 | 36082 ft | 414 kts | 244° |
| 2026-05-08 08:39 | 22.94780 | 41.87683 | 36085 ft | 413 kts | 244° |
| 2026-05-08 08:39 | 22.92683 | 41.81871 | 36089 ft | 413 kts | 244° |
| 2026-05-08 08:40 | 22.90583 | 41.76058 | 36090 ft | 414 kts | 244° |
| 2026-05-08 08:40 | 22.88481 | 41.70242 | 36092 ft | 414 kts | 244° |
| 2026-05-08 08:41 | 22.86393 | 41.64472 | 36094 ft | 414 kts | 244° |
| 2026-05-08 08:41 | 22.84297 | 41.58684 | 36052 ft | 406 kts | 244° |
| 2026-05-08 08:42 | 22.83272 | 41.55853 | 35699 ft | 403 kts | 244° |
| 2026-05-08 08:42 | 22.82230 | 41.52987 | 35085 ft | 414 kts | 244° |
| 2026-05-08 08:42 | 22.81169 | 41.50064 | 34845 ft | 418 kts | 244° |
| 2026-05-08 08:42 | 22.80110 | 41.47132 | 34821 ft | 417 kts | 244° |
| 2026-05-08 08:43 | 22.77995 | 41.41302 | 34760 ft | 414 kts | 243° |
| 2026-05-08 08:43 | 22.75870 | 41.35477 | 34593 ft | 415 kts | 243° |
| 2026-05-08 08:44 | 22.73762 | 41.29696 | 34446 ft | 415 kts | 243° |
| 2026-05-08 08:44 | 22.71636 | 41.23871 | 34294 ft | 416 kts | 243° |
| 2026-05-08 08:45 | 22.69499 | 41.18043 | 34124 ft | 416 kts | 243° |
| 2026-05-08 08:45 | 22.67366 | 41.12224 | 33982 ft | 416 kts | 243° |
| 2026-05-08 08:46 | 22.66296 | 41.09304 | 33836 ft | 417 kts | 244° |
| 2026-05-08 08:46 | 22.65224 | 41.06376 | 33705 ft | 419 kts | 244° |
| 2026-05-08 08:46 | 22.64150 | 41.03445 | 33603 ft | 419 kts | 244° |
| 2026-05-08 08:46 | 22.63074 | 41.00513 | 33485 ft | 420 kts | 244° |
| 2026-05-08 08:47 | 22.61978 | 40.97547 | 33297 ft | 427 kts | 244° |
| 2026-05-08 08:47 | 22.60872 | 40.94559 | 32977 ft | 427 kts | 244° |
| 2026-05-08 08:47 | 22.59783 | 40.91614 | 32598 ft | 426 kts | 245° |
| 2026-05-08 08:47 | 22.58687 | 40.88639 | 32171 ft | 425 kts | 245° |
| 2026-05-08 08:48 | 22.57587 | 40.85657 | 31750 ft | 427 kts | 245° |
| 2026-05-08 08:48 | 22.56486 | 40.82673 | 31357 ft | 428 kts | 246° |
| 2026-05-08 08:48 | 22.55377 | 40.79675 | 30967 ft | 430 kts | 246° |
| 2026-05-08 08:48 | 22.54262 | 40.76665 | 30580 ft | 432 kts | 246° |
| 2026-05-08 08:49 | 22.53140 | 40.73636 | 30183 ft | 436 kts | 246° |
| 2026-05-08 08:49 | 22.52008 | 40.70580 | 29730 ft | 439 kts | 247° |
| 2026-05-08 08:49 | 22.50872 | 40.67515 | 29281 ft | 439 kts | 247° |
| 2026-05-08 08:49 | 22.49741 | 40.64462 | 28845 ft | 436 kts | 247° |
| 2026-05-08 08:50 | 22.48612 | 40.61416 | 28401 ft | 434 kts | 247° |
| 2026-05-08 08:50 | 22.47507 | 40.58439 | 27960 ft | 431 kts | 248° |
| 2026-05-08 08:50 | 22.46378 | 40.55398 | 27524 ft | 429 kts | 248° |
| 2026-05-08 08:50 | 22.45269 | 40.52414 | 27093 ft | 426 kts | 248° |
| 2026-05-08 08:51 | 22.44176 | 40.49477 | 26600 ft | 426 kts | 248° |
| 2026-05-08 08:51 | 22.43072 | 40.46512 | 26091 ft | 425 kts | 248° |
| 2026-05-08 08:51 | 22.41971 | 40.43556 | 25606 ft | 423 kts | 249° |
| 2026-05-08 08:51 | 22.40876 | 40.40617 | 25108 ft | 418 kts | 249° |
| 2026-05-08 08:52 | 22.39801 | 40.37736 | 24608 ft | 403 kts | 249° |
| 2026-05-08 08:52 | 22.38780 | 40.35006 | 24100 ft | 379 kts | 250° |
| 2026-05-08 08:52 | 22.37822 | 40.32447 | 23592 ft | 356 kts | 250° |
| 2026-05-08 08:52 | 22.36932 | 40.30065 | 23026 ft | 337 kts | 250° |
| 2026-05-08 08:53 | 22.36079 | 40.27781 | 22458 ft | 320 kts | 249° |
| 2026-05-08 08:53 | 22.35262 | 40.25591 | 21905 ft | 310 kts | 249° |
| 2026-05-08 08:53 | 22.34446 | 40.23402 | 21415 ft | 319 kts | 249° |
| 2026-05-08 08:53 | 22.33608 | 40.21157 | 20913 ft | 324 kts | 248° |
| 2026-05-08 08:54 | 22.32761 | 40.18892 | 20413 ft | 326 kts | 248° |
| 2026-05-08 08:54 | 22.31907 | 40.16613 | 19916 ft | 328 kts | 248° |
| 2026-05-08 08:54 | 22.31050 | 40.14324 | 19418 ft | 329 kts | 247° |
| 2026-05-08 08:54 | 22.30186 | 40.12019 | 18941 ft | 331 kts | 246° |
| 2026-05-08 08:55 | 22.29320 | 40.09710 | 18460 ft | 332 kts | 246° |
| 2026-05-08 08:55 | 22.28474 | 40.07454 | 17896 ft | 315 kts | 246° |
| 2026-05-08 08:55 | 22.27680 | 40.05339 | 17350 ft | 303 kts | 246° |
| 2026-05-08 08:55 | 22.26885 | 40.03226 | 17168 ft | 307 kts | 246° |
| 2026-05-08 08:56 | 22.25971 | 40.01134 | 17015 ft | 308 kts | 238° |
| 2026-05-08 08:56 | 22.24822 | 39.99206 | 17011 ft | 303 kts | 234° |
| 2026-05-08 08:56 | 22.23630 | 39.97344 | 17013 ft | 301 kts | 234° |
| 2026-05-08 08:56 | 22.22445 | 39.95485 | 16944 ft | 300 kts | 235° |
| 2026-05-08 08:57 | 22.21282 | 39.93627 | 16701 ft | 298 kts | 235° |
| 2026-05-08 08:57 | 22.20132 | 39.91763 | 16338 ft | 299 kts | 236° |
| 2026-05-08 08:57 | 22.18983 | 39.89888 | 15983 ft | 300 kts | 236° |
| 2026-05-08 08:57 | 22.17809 | 39.88037 | 15650 ft | 298 kts | 231° |
| 2026-05-08 08:58 | 22.16426 | 39.86384 | 15303 ft | 296 kts | 224° |
| 2026-05-08 08:58 | 22.14904 | 39.84953 | 14925 ft | 282 kts | 220° |
| 2026-05-08 08:58 | 22.13409 | 39.83679 | 14567 ft | 266 kts | 219° |
| 2026-05-08 08:58 | 22.11980 | 39.82484 | 14219 ft | 252 kts | 219° |
| 2026-05-08 08:59 | 22.10626 | 39.81352 | 13853 ft | 242 kts | 219° |
| 2026-05-08 08:59 | 22.09299 | 39.80236 | 13525 ft | 245 kts | 219° |
| 2026-05-08 08:59 | 22.07933 | 39.79081 | 13203 ft | 252 kts | 219° |
| 2026-05-08 08:59 | 22.06545 | 39.77905 | 12883 ft | 253 kts | 219° |
| 2026-05-08 09:00 | 22.05177 | 39.76743 | 12633 ft | 248 kts | 219° |
| 2026-05-08 09:00 | 22.03847 | 39.75613 | 12368 ft | 244 kts | 219° |
| 2026-05-08 09:00 | 22.02525 | 39.74487 | 12100 ft | 240 kts | 219° |
| 2026-05-08 09:00 | 22.01222 | 39.73377 | 11841 ft | 236 kts | 219° |
| 2026-05-08 09:01 | 21.99939 | 39.72283 | 11592 ft | 234 kts | 219° |
| 2026-05-08 09:01 | 21.98663 | 39.71194 | 11364 ft | 234 kts | 219° |
| 2026-05-08 09:01 | 21.97364 | 39.70085 | 11156 ft | 239 kts | 218° |
| 2026-05-08 09:01 | 21.96071 | 39.68982 | 10989 ft | 234 kts | 218° |
| 2026-05-08 09:02 | 21.94790 | 39.67888 | 10732 ft | 237 kts | 218° |
| 2026-05-08 09:02 | 21.93489 | 39.66780 | 10504 ft | 240 kts | 218° |
| 2026-05-08 09:02 | 21.92180 | 39.65664 | 10283 ft | 240 kts | 218° |
| 2026-05-08 09:02 | 21.90887 | 39.64561 | 10050 ft | 240 kts | 218° |
| 2026-05-08 09:03 | 21.89568 | 39.63436 | 9811 ft | 238 kts | 218° |
| 2026-05-08 09:03 | 21.88284 | 39.62341 | 9565 ft | 239 kts | 218° |
| 2026-05-08 09:03 | 21.87514 | 39.61685 | 9410 ft | 239 kts | 218° |
| 2026-05-08 09:03 | 21.86214 | 39.60577 | 9150 ft | 238 kts | 217° |
| 2026-05-08 09:04 | 21.84915 | 39.59470 | 8922 ft | 238 kts | 217° |
| 2026-05-08 09:04 | 21.83618 | 39.58366 | 8688 ft | 238 kts | 217° |
| 2026-05-08 09:04 | 21.82319 | 39.57260 | 8433 ft | 238 kts | 217° |
| 2026-05-08 09:04 | 21.81020 | 39.56153 | 8198 ft | 239 kts | 217° |
| 2026-05-08 09:05 | 21.79710 | 39.55040 | 7965 ft | 241 kts | 217° |
| 2026-05-08 09:05 | 21.78387 | 39.53915 | 7725 ft | 243 kts | 217° |
| 2026-05-08 09:05 | 21.77059 | 39.52783 | 7484 ft | 244 kts | 217° |
| 2026-05-08 09:05 | 21.75728 | 39.51649 | 7248 ft | 244 kts | 217° |
| 2026-05-08 09:06 | 21.74395 | 39.50515 | 7016 ft | 244 kts | 217° |
| 2026-05-08 09:06 | 21.73078 | 39.49396 | 6789 ft | 244 kts | 217° |
| 2026-05-08 09:06 | 21.71743 | 39.48262 | 6555 ft | 244 kts | 217° |
| 2026-05-08 09:06 | 21.70409 | 39.47128 | 6317 ft | 244 kts | 217° |
| 2026-05-08 09:07 | 21.69076 | 39.45996 | 6069 ft | 244 kts | 217° |
| 2026-05-08 09:07 | 21.67745 | 39.44865 | 5811 ft | 241 kts | 217° |
| 2026-05-08 09:07 | 21.66456 | 39.43770 | 5502 ft | 232 kts | 217° |
| 2026-05-08 09:07 | 21.65191 | 39.42697 | 5228 ft | 235 kts | 217° |
| 2026-05-08 09:08 | 21.63881 | 39.41586 | 4897 ft | 242 kts | 217° |
| 2026-05-08 09:08 | 21.62566 | 39.40470 | 4547 ft | 239 kts | 218° |
| 2026-05-08 09:08 | 21.61275 | 39.39373 | 4159 ft | 234 kts | 217° |
| 2026-05-08 09:08 | 21.60025 | 39.38313 | 3807 ft | 230 kts | 218° |
| 2026-05-08 09:09 | 21.58751 | 39.37232 | 3467 ft | 236 kts | 218° |
| 2026-05-08 09:09 | 21.57453 | 39.36131 | 3133 ft | 238 kts | 217° |
| 2026-05-08 09:09 | 21.56171 | 39.35046 | 3019 ft | 229 kts | 218° |
| 2026-05-08 09:09 | 21.54909 | 39.33979 | 3024 ft | 237 kts | 218° |
| 2026-05-08 09:10 | 21.53678 | 39.32798 | 2986 ft | 241 kts | 234° |
| 2026-05-08 09:10 | 21.52999 | 39.31205 | 3012 ft | 232 kts | 251° |
| 2026-05-08 09:10 | 21.52456 | 39.29590 | 2991 ft | 228 kts | 251° |
| 2026-05-08 09:10 | 21.51947 | 39.28097 | 2999 ft | 218 kts | 251° |
| 2026-05-08 09:11 | 21.51455 | 39.26581 | 3012 ft | 213 kts | 259° |
| 2026-05-08 09:11 | 21.51556 | 39.25024 | 2993 ft | 209 kts | 295° |
| 2026-05-08 09:11 | 21.52460 | 39.23911 | 2889 ft | 196 kts | 331° |
| 2026-05-08 09:11 | 21.53670 | 39.23262 | 2654 ft | 196 kts | 338° |
| 2026-05-08 09:12 | 21.54910 | 39.22697 | 2400 ft | 191 kts | 341° |
| 2026-05-08 09:12 | 21.56123 | 39.22207 | 2163 ft | 178 kts | 341° |
| 2026-05-08 09:12 | 21.57213 | 39.21778 | 1955 ft | 154 kts | 341° |
| 2026-05-08 09:12 | 21.58136 | 39.21414 | 1743 ft | 129 kts | 340° |
| 2026-05-08 09:13 | 21.58943 | 39.21098 | 1613 ft | 122 kts | 338° |
| 2026-05-08 09:13 | 21.59751 | 39.20779 | 1450 ft | 128 kts | 338° |
| 2026-05-08 09:13 | 21.60604 | 39.20442 | 1291 ft | 130 kts | 338° |
| 2026-05-08 09:13 | 21.61458 | 39.20111 | 1092 ft | 132 kts | 338° |
| 2026-05-08 09:14 | 21.62302 | 39.19768 | 870 ft | 128 kts | 337° |
| 2026-05-08 09:14 | 21.63017 | 39.19472 | 747 ft | 122 kts | 336° |
| 2026-05-08 09:14 | 21.63859 | 39.19136 | 683 ft | 133 kts | 339° |
| 2026-05-08 09:14 | 21.64763 | 39.18800 | 469 ft | 136 kts | 338° |
| 2026-05-08 09:15 | 21.65604 | 39.18465 | 270 ft | 124 kts | 338° |
| 2026-05-08 09:15 | 21.66407 | 39.18141 | 137 ft | 127 kts | 339° |
| 2026-05-08 09:15 | 21.67248 | 39.17820 | 56 ft | 125 kts | 338° |
| 2026-05-08 09:15 | 21.67909 | 39.17550 | 52 ft | 70 kts | 340° |
| 2026-05-08 09:16 | 21.68157 | 39.17451 | 47 ft | 21 kts | 340° |
| 2026-05-08 09:16 | 21.68286 | 39.17380 | 50 ft | 15 kts | 317° |
| 2026-05-08 09:16 | 21.68336 | 39.17318 | 49 ft | 13 kts | 309° |
| 2026-05-08 09:16 | 21.68394 | 39.17240 | 48 ft | 12 kts | 307° |
| 2026-05-08 09:17 | 21.68445 | 39.17166 | 48 ft | 12 kts | 306° |
| 2026-05-08 09:17 | 21.68490 | 39.17089 | 49 ft | 12 kts | 295° |
| 2026-05-08 09:17 | 21.68482 | 39.17020 | 49 ft | 7 kts | 216° |
| 2026-05-08 09:17 | 21.68431 | 39.17019 | 49 ft | 8 kts | 168° |
| 2026-05-08 09:18 | 21.68362 | 39.17049 | 46 ft | 12 kts | 154° |
| 2026-05-08 09:18 | 21.68281 | 39.17073 | 48 ft | 13 kts | 159° |
| 2026-05-08 09:18 | 21.68195 | 39.17107 | 48 ft | 13 kts | 160° |
| 2026-05-08 09:18 | 21.68108 | 39.17140 | 49 ft | 13 kts | 160° |
| 2026-05-08 09:19 | 21.68050 | 39.17163 | 50 ft | 6 kts | 160° |
| 2026-05-08 09:19 | 21.67997 | 39.17174 | 51 ft | 12 kts | 192° |
| 2026-05-08 09:19 | 21.67942 | 39.17093 | 51 ft | 10 kts | 249° |
| 2026-05-08 09:19 | 21.67914 | 39.17018 | 52 ft | 12 kts | 249° |
| 2026-05-08 09:20 | 21.67882 | 39.16926 | 50 ft | 15 kts | 249° |